Time;durP1;ratioP1;P1;durP2;ratioP2;P2;SDS_P1;SDS_P2;PMS_P1;PMS_P2;Temp;Humidity;BMP_temperature;BMP_pressure;BME280_temperature;BME280_humidity;BME280_pressure;Samples;Min_cycle;Max_cycle;Signal;HPM_P1;HPM_P2
2022/09/29 00:01:02;;;;;;;7.40;6.70;;;;;;;8.91;71.74;98867.84;110948;1251;22074;-80
2022/09/29 00:03:44;;;;;;;9.60;6.50;;;;;;;8.89;71.72;98874.01;110524;1257;23762;-80
2022/09/29 00:06:19;;;;;;;6.00;5.50;;;;;;;8.91;71.75;98876.52;110724;1257;23667;-82
2022/09/29 00:08:51;;;;;;;7.20;6.50;;;;;;;8.92;71.77;98875.42;110181;1256;21986;-82
2022/09/29 00:11:34;;;;;;;7.30;5.90;;;;;;;8.91;71.54;98875.48;110348;1256;22090;-82
2022/09/29 00:14:07;;;;;;;8.40;6.30;;;;;;;8.91;71.67;98873.89;110432;1257;23691;-81
2022/09/29 00:16:45;;;;;;;6.10;5.50;;;;;;;8.94;71.78;98879.46;110362;1257;21944;-80
2022/09/29 00:19:19;;;;;;;6.60;6.10;;;;;;;8.94;71.55;98877.22;109952;1260;23652;-80
2022/09/29 00:21:50;;;;;;;6.90;6.30;;;;;;;8.95;71.41;98879.41;109884;1257;21964;-81
2022/09/29 00:24:24;;;;;;;7.00;6.40;;;;;;;8.91;71.41;98884.13;110574;1255;23636;-80
2022/09/29 00:27:01;;;;;;;8.20;6.60;;;;;;;8.90;71.50;98886.77;110728;1257;22758;-80
2022/09/29 00:29:38;;;;;;;7.60;6.80;;;;;;;8.91;71.53;98890.04;110597;1257;22002;-80
2022/09/29 00:32:14;;;;;;;9.20;8.20;;;;;;;8.91;71.52;98899.09;110186;1257;23033;-79
2022/09/29 00:34:49;;;;;;;9.30;7.70;;;;;;;8.90;71.37;98900.70;109909;1263;23194;-80
2022/09/29 00:37:21;;;;;;;8.20;7.60;;;;;;;8.90;71.54;98896.86;109988;1257;22960;-82
2022/09/29 00:40:08;;;;;;;9.20;8.40;;;;;;;8.90;71.57;98902.77;110368;1260;21969;-81
2022/09/29 00:42:42;;;;;;;8.30;7.60;;;;;;;8.90;71.49;98896.69;109584;1262;21996;-80
2022/09/29 00:45:26;;;;;;;8.30;7.60;;;;;;;8.91;71.47;98897.30;109986;1263;23754;-81
2022/09/29 00:48:14;;;;;;;8.50;7.80;;;;;;;8.91;71.34;98900.95;109614;1263;23833;-82
2022/09/29 00:50:49;;;;;;;8.80;8.00;;;;;;;8.88;71.34;98896.47;109832;1262;21969;-81
2022/09/29 00:53:21;;;;;;;9.00;8.10;;;;;;;8.86;71.29;98898.13;109987;1260;22420;-81
2022/09/29 00:56:16;;;;;;;8.30;7.60;;;;;;;8.83;71.16;98901.77;109354;1259;1087948;-80
2022/09/29 00:58:57;;;;;;;8.70;7.90;;;;;;;8.77;71.03;98900.88;110381;1257;22351;-80
2022/09/29 01:01:35;;;;;;;8.50;7.80;;;;;;;8.70;71.08;98898.94;110747;1254;21979;-82
2022/09/29 01:04:18;;;;;;;7.50;6.90;;;;;;;8.67;71.20;98902.09;110920;1253;22737;-81
2022/09/29 01:06:57;;;;;;;7.30;6.70;;;;;;;8.64;71.14;98900.50;111070;1254;21963;-81
2022/09/29 01:09:36;;;;;;;7.30;6.70;;;;;;;8.60;71.03;98902.45;111031;1254;21982;-81
2022/09/29 01:12:13;;;;;;;6.70;6.10;;;;;;;8.55;71.14;98902.67;110901;1251;21953;-81
2022/09/29 01:14:47;;;;;;;8.20;7.00;;;;;;;8.51;71.09;98906.19;111004;1251;21953;-81
2022/09/29 01:17:33;;;;;;;7.90;7.00;;;;;;;8.48;71.09;98906.36;110838;1254;21971;-79
2022/09/29 01:20:22;;;;;;;7.80;6.90;;;;;;;8.43;71.08;98913.91;111270;1251;22633;-80
2022/09/29 01:23:39;;;;;;;8.10;7.40;;;;;;;8.36;71.13;98919.08;111153;1254;21971;-79
2022/09/29 01:26:33;;;;;;;9.70;8.20;;;;;;;8.28;71.27;98920.01;109632;1264;23117;-81
2022/09/29 01:30:10;;;;;;;10.80;8.50;;;;;;;8.22;71.47;98926.02;109330;1268;21978;-81
2022/09/29 01:33:32;;;;;;;9.80;8.90;;;;;;;8.17;71.62;98932.53;109336;1270;22037;-80
2022/09/29 01:37:04;;;;;;;10.20;9.30;;;;;;;8.14;71.81;98937.04;108974;1273;22006;-81
2022/09/29 01:39:42;;;;;;;10.60;9.60;;;;;;;8.11;72.06;98937.33;108330;1280;22011;-79
2022/09/29 01:42:31;;;;;;;10.70;9.50;;;;;;;8.13;72.14;98937.61;108341;1279;22856;-81
2022/09/29 01:45:29;;;;;;;10.40;9.20;;;;;;;8.14;72.15;98938.23;108534;1277;22123;-82
2022/09/29 01:48:17;;;;;;;11.40;10.50;;;;;;;8.12;72.29;98935.21;108573;1273;22757;-82
2022/09/29 01:50:59;;;;;;;11.50;10.20;;;;;;;8.11;72.36;98940.80;108728;1273;23583;-82
2022/09/29 01:53:43;;;;;;;12.10;10.90;;;;;;;8.10;72.32;98940.84;108714;1273;24331;-82
2022/09/29 01:56:52;;;;;;;11.50;10.60;;;;;;;8.08;72.25;98939.73;108696;1273;21998;-81
2022/09/29 01:59:45;;;;;;;12.60;11.60;;;;;;;8.07;72.49;98946.20;108684;1273;22018;-82
2022/09/29 02:02:33;;;;;;;12.30;11.10;;;;;;;8.07;72.63;98946.52;109128;1267;22043;-81
2022/09/29 02:05:12;;;;;;;12.10;11.00;;;;;;;8.06;72.66;98949.20;109409;1266;23849;-82
2022/09/29 02:07:49;;;;;;;12.30;11.30;;;;;;;8.08;72.66;98954.64;109185;1267;22032;-80
2022/09/29 02:11:03;;;;;;;12.10;11.00;;;;;;;8.09;72.75;98954.25;109381;1267;22040;-82
2022/09/29 02:13:46;;;;;;;12.60;11.20;;;;;;;8.09;72.75;98958.61;110311;1251;21966;-80
2022/09/29 02:16:31;;;;;;;13.50;12.00;;;;;;;8.10;72.76;98959.41;110593;1251;22976;-80
2022/09/29 02:19:26;;;;;;;13.20;12.10;;;;;;;8.11;72.80;98959.87;110890;1252;21965;-82
2022/09/29 02:22:06;;;;;;;14.00;12.90;;;;;;;8.12;72.86;98963.48;111045;1251;21968;-79
2022/09/29 02:24:53;;;;;;;14.50;13.20;;;;;;;8.14;72.88;98965.23;110844;1250;23066;-81
2022/09/29 02:27:23;;;;;;;16.20;14.60;;;;;;;8.15;72.95;98966.60;110846;1254;21961;-80
2022/09/29 02:29:53;;;;;;;15.50;14.20;;;;;;;8.17;72.85;98970.29;110703;1251;21985;-82
2022/09/29 02:32:29;;;;;;;15.50;14.00;;;;;;;8.19;72.81;98968.80;111006;1251;22013;-81
2022/09/29 02:35:00;;;;;;;17.60;15.80;;;;;;;8.24;72.85;98972.55;110297;1260;21988;-81
2022/09/29 02:38:11;;;;;;;14.80;13.60;;;;;;;8.23;72.79;98974.37;110283;1259;22057;-82
2022/09/29 02:41:16;;;;;;;16.30;14.90;;;;;;;8.21;72.73;98970.83;109698;1263;22987;-81
2022/09/29 02:44:20;;;;;;;16.20;14.80;;;;;;;8.17;72.65;98974.64;110056;1262;23072;-81
2022/09/29 02:47:20;;;;;;;15.60;14.30;;;;;;;8.14;72.67;98971.81;109745;1264;21979;-82
2022/09/29 02:50:32;;;;;;;16.40;15.10;;;;;;;8.11;72.59;98975.63;109640;1263;22081;-82
2022/09/29 02:53:31;;;;;;;17.20;15.70;;;;;;;8.04;72.68;98975.81;110153;1256;23074;-81
2022/09/29 02:56:27;;;;;;;16.70;15.40;;;;;;;8.00;72.87;98977.05;109843;1263;22786;-81
2022/09/29 02:59:19;;;;;;;17.30;15.80;;;;;;;7.98;72.95;98976.62;109318;1266;22028;-81
2022/09/29 03:02:15;;;;;;;16.70;15.20;;;;;;;7.96;72.91;98978.96;109020;1270;22031;-80
2022/09/29 03:04:46;;;;;;;18.30;16.70;;;;;;;7.95;72.97;98977.64;109053;1270;22020;-81
2022/09/29 03:07:24;;;;;;;17.10;15.60;;;;;;;7.95;72.91;98973.98;109019;1270;23625;-81
2022/09/29 03:09:56;;;;;;;19.10;17.30;;;;;;;7.94;72.84;98972.98;108993;1273;22004;-81
2022/09/29 03:12:36;;;;;;;17.90;15.40;;;;;;;7.94;72.80;98973.54;108733;1273;23102;-80
2022/09/29 03:15:22;;;;;;;20.30;18.50;;;;;;;7.92;72.87;98972.56;109139;1270;22035;-80
2022/09/29 03:18:10;;;;;;;17.80;16.20;;;;;;;7.91;72.90;98981.64;108923;1270;21987;-82
2022/09/29 03:21:12;;;;;;;20.30;18.10;;;;;;;7.90;72.83;98982.39;109397;1263;22031;-80
2022/09/29 03:24:34;;;;;;;20.00;18.30;;;;;;;7.85;72.90;98981.40;109363;1264;21973;-80
2022/09/29 03:27:14;;;;;;;21.60;19.70;;;;;;;7.85;72.90;98987.64;109497;1264;21998;-80
2022/09/29 03:29:49;;;;;;;19.10;17.30;;;;;;;7.85;72.84;98987.64;109442;1266;23140;-82
2022/09/29 03:32:44;;;;;;;18.90;17.00;;;;;;;7.84;72.81;98987.69;109608;1263;22432;-80
2022/09/29 03:35:31;;;;;;;20.60;18.70;;;;;;;7.80;72.85;98988.05;110132;1251;23613;-79
2022/09/29 03:38:05;;;;;;;20.60;18.80;;;;;;;7.79;72.74;98994.17;110979;1251;23073;-79
2022/09/29 03:40:44;;;;;;;19.90;18.00;;;;;;;7.76;72.87;98992.74;110600;1251;23046;-80
2022/09/29 03:43:17;;;;;;;20.10;18.10;;;;;;;7.78;73.05;98995.95;110690;1251;22035;-79
2022/09/29 03:45:58;;;;;;;20.70;19.00;;;;;;;7.81;73.23;98996.31;110170;1257;22080;-80
2022/09/29 03:48:36;;;;;;;19.80;17.60;;;;;;;7.81;73.23;98997.35;110108;1259;24385;-79
2022/09/29 03:51:15;;;;;;;30.40;27.30;;;;;;;7.82;73.40;98998.72;109826;1258;21978;-80
2022/09/29 03:54:19;;;;;;;44.20;39.50;;;;;;;7.77;73.51;98996.01;110434;1260;21986;-78
2022/09/29 03:57:06;;;;;;;44.10;39.80;;;;;;;7.75;73.50;98998.86;109452;1265;23686;-80
2022/09/29 03:59:39;;;;;;;61.30;54.70;;;;;;;7.74;73.39;99002.20;109420;1263;21983;-79
2022/09/29 04:02:20;;;;;;;64.70;57.80;;;;;;;7.69;73.33;99005.04;109495;1266;22025;-80
2022/09/29 04:05:04;;;;;;;59.30;53.30;;;;;;;7.71;73.53;99006.84;109884;1257;21974;-81
2022/09/29 04:07:56;;;;;;;58.60;52.40;;;;;;;7.66;73.45;99009.52;110420;1257;22265;-79
2022/09/29 04:10:35;;;;;;;56.20;50.20;;;;;;;7.62;73.47;99008.30;109567;1265;23081;-80
2022/09/29 04:13:07;;;;;;;53.70;48.30;;;;;;;7.60;73.50;99015.69;109220;1264;22099;-80
2022/09/29 04:15:43;;;;;;;52.50;47.10;;;;;;;7.60;73.68;99017.75;109433;1264;21998;-80
2022/09/29 04:21:53;;;;;;;;;;;;;;;;;;;;;
2022/09/29 04:26:43;;;;;;;;;;;;;;;;;;;;;
2022/09/29 04:30:05;;;;;;;40.70;36.50;;;;;;;7.65;74.12;99036.06;108693;1276;23055;-83
2022/09/29 04:33:56;;;;;;;29.50;26.50;;;;;;;7.73;74.22;99038.45;108649;1276;21990;-83
2022/09/29 04:36:39;;;;;;;31.60;28.00;;;;;;;7.75;73.88;99040.92;108582;1277;22004;-82
2022/09/29 04:39:39;;;;;;;29.70;26.50;;;;;;;7.81;73.86;99048.10;108189;1282;22010;-82
2022/09/29 04:43:12;;;;;;;30.80;27.60;;;;;;;7.82;73.67;99046.98;108268;1280;22067;-86
2022/09/29 04:46:05;;;;;;;38.20;32.90;;;;;;;7.83;73.55;99049.77;108450;1279;22796;-81
2022/09/29 04:48:36;;;;;;;38.10;34.00;;;;;;;7.80;73.07;99045.21;108362;1279;21999;-80
2022/09/29 04:51:09;;;;;;;40.10;35.80;;;;;;;7.75;73.05;99049.61;108356;1273;23083;-81
2022/09/29 04:53:52;;;;;;;35.30;31.50;;;;;;;7.73;73.20;99051.09;108936;1266;23396;-81
2022/09/29 04:56:30;;;;;;;30.30;27.00;;;;;;;7.73;73.28;99053.14;109718;1266;22751;-80
2022/09/29 04:59:26;;;;;;;32.10;27.20;;;;;;;7.73;73.42;99053.67;109434;1265;21987;-80
2022/09/29 05:02:04;;;;;;;31.80;27.90;;;;;;;7.76;73.38;99055.61;109650;1266;22030;-81
2022/09/29 05:04:36;;;;;;;28.50;25.30;;;;;;;7.77;73.34;99060.42;109799;1260;22242;-80
2022/09/29 05:07:14;;;;;;;36.40;26.60;;;;;;;7.77;73.31;99064.40;110814;1251;21956;-81
2022/09/29 05:09:59;;;;;;;35.20;28.20;;;;;;;7.69;72.67;99066.53;110655;1254;22244;-81
2022/09/29 05:12:32;;;;;;;37.90;30.10;;;;;;;7.55;72.68;99065.91;110624;1254;23597;-81
2022/09/29 05:15:32;;;;;;;37.70;29.70;;;;;;;7.51;73.06;99069.24;110416;1254;21968;-82
2022/09/29 05:18:14;;;;;;;34.20;27.80;;;;;;;7.51;73.38;99070.28;110389;1254;21954;-81
2022/09/29 05:20:49;;;;;;;42.10;31.00;;;;;;;7.56;73.55;99072.28;110497;1254;23609;-80
2022/09/29 05:23:55;;;;;;;40.60;31.30;;;;;;;7.55;73.30;99072.33;110273;1257;21972;-79
2022/09/29 05:26:44;;;;;;;40.20;31.40;;;;;;;7.57;73.48;99073.12;110467;1254;22501;-79
2022/09/29 05:29:37;;;;;;;35.70;27.30;;;;;;;7.57;73.48;99076.25;110895;1251;22475;-79
2022/09/29 05:32:14;;;;;;;29.30;23.70;;;;;;;7.57;73.39;99080.75;110916;1250;23033;-79
2022/09/29 05:34:53;;;;;;;36.90;25.10;;;;;;;7.56;73.30;99079.02;110992;1252;21955;-80
2022/09/29 05:37:39;;;;;;;33.10;25.30;;;;;;;7.57;73.44;99079.36;110632;1251;23626;-78
2022/09/29 05:40:31;;;;;;;38.80;29.30;;;;;;;7.60;73.55;99085.61;110797;1251;21968;-79
2022/09/29 05:43:04;;;;;;;40.50;30.60;;;;;;;7.65;73.54;99088.86;110607;1251;21991;-77
2022/09/29 05:45:41;;;;;;;40.30;29.80;;;;;;;7.69;73.56;99086.73;110695;1251;21962;-77
2022/09/29 05:48:43;;;;;;;37.10;31.70;;;;;;;7.77;73.64;99087.39;110619;1251;21971;-77
2022/09/29 05:51:25;;;;;;;35.50;29.80;;;;;;;7.80;73.58;99092.33;110178;1259;21969;-77
2022/09/29 05:54:03;;;;;;;46.60;31.20;;;;;;;7.82;73.42;99093.41;110136;1259;22920;-77
2022/09/29 05:56:33;;;;;;;38.20;30.30;;;;;;;7.86;73.31;99091.34;110028;1257;21972;-77
2022/09/29 05:59:08;;;;;;;42.60;31.10;;;;;;;7.91;73.28;99095.46;110279;1257;23628;-75
2022/09/29 06:01:37;;;;;;;38.40;30.60;;;;;;;7.93;73.30;99101.09;110272;1257;21971;-77
2022/09/29 06:04:07;;;;;;;39.60;31.80;;;;;;;7.96;73.10;99105.08;110004;1257;21964;-79
2022/09/29 06:06:43;;;;;;;42.30;29.90;;;;;;;7.98;73.15;99111.94;110223;1258;23671;-77
2022/09/29 06:09:20;;;;;;;38.80;28.80;;;;;;;7.97;73.02;99110.39;110006;1257;21969;-76
2022/09/29 06:11:53;;;;;;;37.40;27.10;;;;;;;7.99;72.92;99106.17;110422;1257;23051;-83
2022/09/29 06:14:25;;;;;;;43.10;31.90;;;;;;;8.01;73.00;99103.30;110037;1257;21965;-76
2022/09/29 06:17:00;;;;;;;47.10;35.90;;;;;;;8.05;72.78;99106.41;110298;1257;21978;-82
2022/09/29 06:19:35;;;;;;;43.10;34.80;;;;;;;7.99;72.50;99106.48;110526;1257;23094;-79
2022/09/29 06:22:23;;;;;;;41.00;30.00;;;;;;;7.96;72.61;99106.64;110216;1257;22064;-80
2022/09/29 06:24:53;;;;;;;36.80;25.80;;;;;;;7.94;72.44;99107.75;109759;1264;21995;-79
2022/09/29 06:27:36;;;;;;;34.00;26.70;;;;;;;7.89;72.28;99110.92;109643;1264;21985;-79
2022/09/29 06:30:15;;;;;;;34.60;25.60;;;;;;;7.89;72.64;99111.83;110049;1260;21979;-82
2022/09/29 06:32:46;;;;;;;34.50;28.40;;;;;;;7.96;72.97;99114.42;109836;1263;22205;-80
2022/09/29 06:41:30;;;;;;;34.10;28.80;;;;;;;8.30;73.62;99118.38;109330;1270;23647;-80
2022/09/29 06:44:03;;;;;;;37.30;29.20;;;;;;;8.47;73.46;99120.86;109401;1263;21982;-80
2022/09/29 06:46:36;;;;;;;33.30;28.90;;;;;;;8.64;73.51;99120.21;109287;1267;21976;-81
2022/09/29 06:49:21;;;;;;;33.50;29.20;;;;;;;8.77;73.10;99123.59;109360;1264;23652;-82
2022/09/29 06:51:56;;;;;;;;;;;;;;;8.85;72.55;99124.76;109868;1261;23768;-79
2022/09/29 06:54:26;;;;;;;31.00;27.80;;;;;;;8.87;72.90;99118.58;109803;1263;23682;-80
2022/09/29 06:56:59;;;;;;;29.80;26.90;;;;;;;9.02;73.19;99113.80;109557;1264;23704;-80
2022/09/29 06:59:59;;;;;;;27.60;22.30;;;;;;;9.35;73.50;99114.04;109594;1263;22123;-80
2022/09/29 07:02:33;;;;;;;29.60;26.50;;;;;;;9.67;73.17;99115.96;109560;1263;23047;-80
2022/09/29 07:05:05;;;;;;;28.40;25.70;;;;;;;9.91;72.13;99123.72;109759;1264;21980;-80
2022/09/29 07:07:41;;;;;;;29.70;26.60;;;;;;;10.00;71.00;99129.47;109518;1263;21984;-79
2022/09/29 07:10:13;;;;;;;30.20;27.30;;;;;;;10.13;70.78;99131.20;109547;1263;21971;-80
2022/09/29 07:12:45;;;;;;;28.40;25.40;;;;;;;10.19;69.59;99134.88;110250;1251;23012;-79
2022/09/29 07:15:20;;;;;;;28.00;25.20;;;;;;;10.14;68.90;99141.92;110375;1250;23563;-80
2022/09/29 07:17:51;;;;;;;30.40;27.20;;;;;;;10.18;69.44;99143.09;110665;1253;24366;-79
2022/09/29 07:20:38;;;;;;;35.80;29.60;;;;;;;10.36;69.73;99151.88;110714;1251;22378;-78
2022/09/29 07:23:12;;;;;;;32.30;29.00;;;;;;;10.51;69.13;99149.09;110779;1251;23573;-79
2022/09/29 07:25:45;;;;;;;29.00;26.00;;;;;;;10.54;68.02;99152.25;110817;1251;21966;-80
2022/09/29 07:28:28;;;;;;;27.90;24.00;;;;;;;10.46;67.30;99157.02;110720;1251;21968;-79
2022/09/29 07:31:18;;;;;;;24.30;21.80;;;;;;;10.44;67.48;99157.00;110724;1250;23673;-79
2022/09/29 07:33:56;;;;;;;24.40;20.80;;;;;;;10.72;69.04;99154.70;110737;1251;23056;-79
2022/09/29 07:36:28;;;;;;;21.80;19.60;;;;;;;11.16;69.22;99156.69;110438;1251;23078;-78
2022/09/29 07:39:04;;;;;;;20.50;18.40;;;;;;;11.54;68.62;99156.80;110508;1251;23068;-78
2022/09/29 07:41:44;;;;;;;26.20;20.10;;;;;;;11.84;67.21;99162.33;110679;1251;21965;-78
2022/09/29 07:44:18;;;;;;;20.50;18.50;;;;;;;12.07;66.88;99162.80;110531;1251;22015;-79
2022/09/29 07:46:49;;;;;;;24.50;19.60;;;;;;;12.40;66.43;99164.09;110300;1257;21962;-78
2022/09/29 07:49:30;;;;;;;20.60;18.60;;;;;;;12.80;66.21;99166.86;110436;1257;23575;-78
2022/09/29 07:52:18;;;;;;;21.10;19.10;;;;;;;13.25;65.49;99167.23;109624;1260;23667;-78
2022/09/29 07:54:50;;;;;;;20.20;18.20;;;;;;;13.62;63.98;99168.36;109797;1260;23045;-78
2022/09/29 07:57:24;;;;;;;19.30;16.90;;;;;;;13.73;61.78;99172.58;110011;1261;22786;-78
2022/09/29 07:59:57;;;;;;;19.60;17.70;;;;;;;13.92;62.04;99175.05;109867;1260;22825;-77
2022/09/29 08:02:27;;;;;;;21.40;19.20;;;;;;;14.13;61.10;99176.58;109799;1261;23688;-78
2022/09/29 08:05:07;;;;;;;24.80;22.30;;;;;;;14.13;59.68;99179.55;109572;1257;22172;-79
2022/09/29 08:07:37;;;;;;;;;;;;;;;14.07;59.19;99185.91;110132;1257;22408;-79
2022/09/29 08:10:20;;;;;;;19.90;18.00;;;;;;;13.84;59.08;99185.73;110401;1251;21967;-77
2022/09/29 08:12:55;;;;;;;22.30;19.70;;;;;;;13.79;59.47;99186.81;110741;1251;23074;-77
2022/09/29 08:15:34;;;;;;;14.00;12.70;;;;;;;13.83;59.76;99183.92;110212;1257;23000;-78
2022/09/29 08:18:13;;;;;;;13.90;12.70;;;;;;;13.89;59.51;99186.11;110533;1256;21963;-79
2022/09/29 08:20:52;;;;;;;15.20;13.20;;;;;;;13.91;59.09;99188.94;110260;1256;22007;-80
2022/09/29 08:23:42;;;;;;;15.00;13.30;;;;;;;13.95;59.06;99187.09;110167;1258;23724;-77
2022/09/29 08:26:27;;;;;;;16.40;14.80;;;;;;;14.04;59.10;99191.35;110249;1257;21933;-78
2022/09/29 08:29:16;;;;;;;22.70;20.40;;;;;;;14.02;58.71;99190.81;110231;1256;21963;-78
2022/09/29 08:31:54;;;;;;;15.80;14.40;;;;;;;14.03;58.80;99188.98;109149;1263;23775;-78
2022/09/29 08:34:37;;;;;;;16.00;13.60;;;;;;;14.13;58.89;99191.08;109821;1260;21944;-78
2022/09/29 08:37:28;;;;;;;13.70;12.40;;;;;;;14.46;59.67;99189.95;109673;1258;21989;-79
2022/09/29 08:40:28;;;;;;;12.20;11.00;;;;;;;15.05;59.09;99191.42;109726;1259;21967;-79
2022/09/29 08:43:26;;;;;;;12.80;10.90;;;;;;;15.32;57.13;99191.67;109953;1260;21966;-79
2022/09/29 08:47:12;;;;;;;10.80;9.70;;;;;;;15.27;55.61;99195.88;110058;1259;22085;-79
2022/09/29 08:50:02;;;;;;;8.40;7.60;;;;;;;15.27;55.39;99196.41;109968;1257;21969;-78
2022/09/29 08:52:51;;;;;;;12.60;8.50;;;;;;;15.35;54.77;99196.88;110295;1257;21938;-78
2022/09/29 08:56:24;;;;;;;9.40;8.60;;;;;;;15.51;54.95;99191.95;109905;1257;22915;-78
2022/09/29 08:58:58;;;;;;;9.70;8.80;;;;;;;15.76;54.26;99195.54;109640;1263;22467;-79
2022/09/29 09:02:04;;;;;;;13.90;10.70;;;;;;;15.97;53.59;99197.98;109399;1262;21967;-79
2022/09/29 09:05:35;;;;;;;8.60;7.50;;;;;;;16.12;53.35;99200.77;109511;1263;21983;-82
2022/09/29 09:09:02;;;;;;;12.10;10.60;;;;;;;16.47;53.05;99200.85;109573;1262;21996;-78
2022/09/29 09:12:27;;;;;;;10.30;8.30;;;;;;;16.73;52.10;99202.42;109598;1265;23820;-79
2022/09/29 09:15:16;;;;;;;14.50;12.80;;;;;;;16.85;51.09;99199.16;109077;1271;22415;-77
2022/09/29 09:18:50;;;;;;;9.50;8.60;;;;;;;17.11;51.22;99201.11;108485;1274;22049;-80
2022/09/29 09:22:52;;;;;;;8.50;7.80;;;;;;;17.48;50.40;99203.61;108354;1283;22018;-82
2022/09/29 09:25:59;;;;;;;9.30;8.40;;;;;;;17.86;48.69;99211.15;108123;1282;544038;-80
2022/09/29 09:29:13;;;;;;;8.90;6.70;;;;;;;17.73;47.26;99213.13;109538;1266;22030;-79
2022/09/29 09:35:37;;;;;;;7.60;6.20;;;;;;;17.13;47.32;99214.66;110106;1257;22172;-81
2022/09/29 09:39:01;;;;;;;6.40;5.80;;;;;;;17.10;48.33;99216.98;109550;1257;1267727;-82
2022/09/29 09:41:48;;;;;;;17.50;5.10;;;;;;;17.07;48.16;99220.60;110688;1257;21971;-77
2022/09/29 09:45:04;;;;;;;6.30;4.90;;;;;;;16.99;47.53;99223.88;109367;1265;21966;-78
2022/09/29 09:47:50;;;;;;;6.50;4.90;;;;;;;16.63;47.22;99223.93;109280;1262;22403;-79
2022/09/29 09:50:38;;;;;;;10.50;6.40;;;;;;;16.35;47.92;99230.71;109502;1264;21999;-78
2022/09/29 09:53:37;;;;;;;5.40;4.90;;;;;;;16.36;49.07;99231.02;109208;1267;22034;-81
2022/09/29 09:56:59;;;;;;;5.80;5.20;;;;;;;16.52;49.37;99227.96;108716;1273;23747;-79
2022/09/29 10:00:27;;;;;;;5.90;5.40;;;;;;;16.50;48.39;99229.05;108667;1273;22630;-78
2022/09/29 10:03:07;;;;;;;6.20;5.60;;;;;;;16.27;48.21;99231.73;108080;1279;23065;-77
2022/09/29 10:06:13;;;;;;;5.50;5.00;;;;;;;16.19;48.85;99232.52;107960;1281;22471;-77
2022/09/29 10:09:01;;;;;;;6.10;5.50;;;;;;;16.00;47.83;99234.70;108348;1276;21984;-77
2022/09/29 10:11:46;;;;;;;6.50;5.90;;;;;;;15.69;48.22;99237.08;108471;1273;22099;-77
2022/09/29 10:14:51;;;;;;;6.00;5.50;;;;;;;15.55;48.83;99238.81;108513;1273;22149;-77
2022/09/29 10:17:39;;;;;;;6.80;6.20;;;;;;;15.40;48.85;99240.02;108378;1276;22040;-78
2022/09/29 10:20:15;;;;;;;6.30;5.70;;;;;;;15.20;49.13;99246.77;108425;1274;21984;-78
2022/09/29 10:22:47;;;;;;;6.70;6.10;;;;;;;15.11;49.54;99248.08;108693;1270;23857;-77
2022/09/29 10:25:32;;;;;;;8.50;6.50;;;;;;;15.23;50.25;99247.20;108796;1273;23089;-76
2022/09/29 10:28:17;;;;;;;7.90;7.10;;;;;;;15.64;50.92;99252.56;108788;1273;21982;-77
2022/09/29 10:31:15;;;;;;;7.70;6.10;;;;;;;16.19;50.95;99248.00;108929;1267;21988;-77
2022/09/29 10:33:54;;;;;;;6.00;5.40;;;;;;;16.76;49.85;99246.48;109528;1262;21987;-76
2022/09/29 10:36:46;;;;;;;6.60;5.90;;;;;;;17.14;47.84;99245.44;109377;1261;21956;-76
2022/09/29 10:39:57;;;;;;;6.10;5.60;;;;;;;17.16;46.64;99246.56;109088;1260;23608;-77
2022/09/29 10:42:47;;;;;;;8.40;5.60;;;;;;;16.82;45.81;99248.78;110224;1257;23603;-77
2022/09/29 10:45:27;;;;;;;5.90;5.40;;;;;;;16.45;45.84;99247.02;110141;1257;21955;-77
2022/09/29 10:47:59;;;;;;;7.00;5.50;;;;;;;16.10;46.38;99250.84;110240;1257;24420;-76
2022/09/29 10:51:06;;;;;;;12.80;11.50;;;;;;;15.89;47.28;99250.11;110304;1259;23118;-76
2022/09/29 10:53:51;;;;;;;8.60;7.70;;;;;;;15.62;47.22;99253.06;109012;1267;23694;-77
2022/09/29 10:56:28;;;;;;;6.80;6.10;;;;;;;15.40;47.74;99254.38;109259;1265;24396;-75
2022/09/29 10:59:06;;;;;;;6.30;5.80;;;;;;;15.33;48.39;99254.49;110069;1260;22161;-75
2022/09/29 11:01:58;;;;;;;8.00;7.10;;;;;;;15.29;48.25;99259.06;109993;1260;22879;-76
2022/09/29 11:04:38;;;;;;;11.00;8.60;;;;;;;15.13;48.50;99262.98;109996;1260;21961;-76
2022/09/29 11:07:16;;;;;;;8.00;7.00;;;;;;;15.10;49.12;99264.67;109999;1259;23007;-76
2022/09/29 11:09:58;;;;;;;7.90;6.90;;;;;;;15.05;49.04;99259.03;109972;1260;22039;-76
2022/09/29 11:12:38;;;;;;;7.10;6.40;;;;;;;15.01;49.04;99260.07;110177;1260;22007;-74
2022/09/29 11:15:38;;;;;;;9.60;6.90;;;;;;;14.94;48.99;99261.80;109745;1261;23719;-75
2022/09/29 11:18:34;;;;;;;6.90;5.90;;;;;;;14.86;49.54;99266.44;109980;1257;23068;-75
2022/09/29 11:21:09;;;;;;;8.80;7.40;;;;;;;14.85;49.78;99268.91;110074;1257;24291;-75
2022/09/29 11:24:12;;;;;;;8.90;6.90;;;;;;;14.87;49.97;99267.89;110003;1257;23718;-75
2022/09/29 11:27:28;;;;;;;7.20;6.60;;;;;;;14.93;50.36;99266.58;110046;1257;21969;-75
2022/09/29 11:30:09;;;;;;;25.10;16.30;;;;;;;14.96;50.08;99269.90;110340;1257;22440;-76
2022/09/29 11:33:27;;;;;;;13.80;10.80;;;;;;;14.93;50.11;99268.15;110511;1257;23812;-75
2022/09/29 11:36:41;;;;;;;9.80;8.00;;;;;;;14.93;50.23;99269.94;109901;1257;23686;-75
2022/09/29 11:39:51;;;;;;;10.60;5.60;;;;;;;14.96;50.13;99268.98;109149;1267;21993;-75
2022/09/29 11:42:49;;;;;;;6.60;5.30;;;;;;;15.04;50.14;99271.25;109120;1267;21990;-75
2022/09/29 11:45:39;;;;;;;5.80;4.60;;;;;;;15.12;49.86;99274.48;109056;1267;23698;-75
2022/09/29 11:48:55;;;;;;;7.90;4.50;;;;;;;15.13;49.24;99275.10;108969;1269;21984;-75
2022/09/29 11:51:39;;;;;;;8.80;5.00;;;;;;;15.12;48.65;99275.73;109120;1267;23047;-75
2022/09/29 11:54:50;;;;;;;4.80;4.30;;;;;;;15.16;48.79;99278.40;108956;1270;21982;-75
2022/09/29 11:57:41;;;;;;;5.60;3.70;;;;;;;15.19;48.54;99278.73;109167;1264;21978;-76
2022/09/29 12:00:20;;;;;;;6.20;4.60;;;;;;;15.21;48.31;99280.11;109209;1267;24259;-75
2022/09/29 12:03:21;;;;;;;5.10;4.60;;;;;;;15.23;48.10;99284.17;109267;1264;23759;-75
2022/09/29 12:06:01;;;;;;;8.20;5.80;;;;;;;15.24;47.95;99283.08;109199;1266;23810;-76
2022/09/29 12:09:04;;;;;;;5.90;5.40;;;;;;;15.19;47.81;99278.88;109461;1264;21967;-75
2022/09/29 12:11:40;;;;;;;6.50;5.70;;;;;;;15.22;48.31;99283.59;109572;1261;22851;-74
2022/09/29 12:14:41;;;;;;;5.30;4.20;;;;;;;15.28;48.36;99287.89;109875;1261;23144;-76
2022/09/29 12:17:17;;;;;;;4.80;4.30;;;;;;;15.23;47.74;99286.09;110086;1257;22211;-75
2022/09/29 12:19:58;;;;;;;6.00;4.40;;;;;;;15.16;47.63;99284.14;109998;1257;23621;-75
2022/09/29 12:22:28;;;;;;;5.70;3.80;;;;;;;15.10;47.70;99280.75;110227;1257;22979;-75
2022/09/29 12:25:05;;;;;;;7.90;4.80;;;;;;;15.15;48.03;99281.08;109764;1258;23674;-75
2022/09/29 12:27:39;;;;;;;5.30;4.50;;;;;;;15.20;47.70;99284.02;110005;1257;23691;-76
2022/09/29 12:30:24;;;;;;;7.70;5.70;;;;;;;15.20;47.70;99285.28;109596;1263;21984;-75
2022/09/29 12:33:20;;;;;;;5.80;5.20;;;;;;;15.18;47.86;99284.91;109695;1261;21973;-75
2022/09/29 12:36:44;;;;;;;6.30;5.70;;;;;;;15.14;47.80;99284.52;110041;1257;21970;-75
2022/09/29 12:40:03;;;;;;;9.30;6.20;;;;;;;15.02;47.89;99278.70;110158;1257;21976;-76
2022/09/29 12:43:10;;;;;;;8.00;6.50;;;;;;;14.93;47.96;99284.48;110398;1257;22029;-75
2022/09/29 12:45:40;;;;;;;8.80;5.90;;;;;;;14.85;48.34;99290.97;110072;1257;21966;-75
2022/09/29 12:48:46;;;;;;;7.30;5.90;;;;;;;14.88;48.54;99290.60;110513;1254;24773;-74
2022/09/29 12:51:32;;;;;;;6.20;5.60;;;;;;;14.77;48.28;99294.86;110716;1253;23574;-75
2022/09/29 12:54:28;;;;;;;7.70;6.70;;;;;;;14.75;48.68;99299.23;110673;1254;22941;-75
2022/09/29 12:57:32;;;;;;;7.60;6.80;;;;;;;14.76;48.75;99296.20;109939;1260;23736;-74
2022/09/29 13:00:17;;;;;;;7.00;6.40;;;;;;;14.78;49.02;99293.63;109927;1260;23582;-74
2022/09/29 13:02:48;;;;;;;6.60;5.80;;;;;;;14.80;48.78;99292.54;109804;1260;21984;-74
2022/09/29 13:05:54;;;;;;;6.60;5.80;;;;;;;14.81;48.65;99298.27;110252;1260;23104;-75
2022/09/29 13:08:45;;;;;;;6.20;4.90;;;;;;;14.83;48.76;99300.24;109896;1260;21970;-76
2022/09/29 13:12:10;;;;;;;6.80;5.40;;;;;;;14.85;48.68;99294.84;110076;1260;22662;-75
2022/09/29 13:15:24;;;;;;;6.30;5.10;;;;;;;14.90;48.68;99294.52;108932;1267;21982;-76